»·PEaware :: N614FT KPHX-KPAN

N614FT :: KPHX-KPAN

FLIGHT INFORMATION

Flight Status: Arrived
Operator: Privately registered:
United States
More flights under this callsign
Pilot: Carlos A. (16805)
Aircraft: PIPER PA-31/31P NAVAJO CHIEFTAIN
(PA31)
More flights by this aircraft type
Origin: KPHX Phoenix Sky Harbor Intl
United States
Destination: KPAN Payson
United States
More flights between these airports :: More routes between these airports
Route:
File this flight plan on PilotEdge
Remarks: Arizona Alphabet Challenge
Altitude:
(Current/Filed)
7,500ft
Speed:
(Current/Filed)
180kts
Departed: 09-Oct-23 01:02 PM
Arrived: 09-Oct-23 01:34 PM
Distance/Time
Traveled:
60nm/0:32
Distance/Time
To Go:
Arrived

Flight Plot

Page will automatically refresh every two minutes.

Flight plan parsing failed; only flown route is shown


Map Options




Map Legend


Flown Route
Filed Route
Departure Airport
Arrival Airport
Navaid (VOR, NDB)
Fix

Horizontal Profiles

Position Reports

Time Latitude Longitude Heading Altitude Ground
Speed
09-Oct-23 12:35 33.434548 -112.027565 359 1139ft 0kts
09-Oct-23 12:36 33.434549 -112.027565 359 1139ft 0kts
09-Oct-23 12:37 33.434551 -112.027565 359 1139ft 0kts
09-Oct-23 12:39 33.434554 -112.027565 359 1139ft 0kts
09-Oct-23 12:40 33.434555 -112.027565 359 1139ft 0kts
09-Oct-23 12:41 33.434557 -112.027565 359 1139ft 0kts
09-Oct-23 12:42 33.434559 -112.027565 359 1139ft 0kts
09-Oct-23 12:43 33.434561 -112.027565 359 1139ft 0kts
09-Oct-23 12:44 33.434563 -112.027565 359 1139ft 0kts
09-Oct-23 12:45 33.434565 -112.027565 359 1139ft 0kts
09-Oct-23 12:46 33.434567 -112.027565 359 1139ft 0kts
09-Oct-23 12:47 33.434604 -112.027565 359 1139ft 0kts
09-Oct-23 12:48 33.434517 -112.027619 134 1139ft 0kts
09-Oct-23 12:49 33.434506 -112.027606 134 1139ft 0kts
09-Oct-23 12:50 33.434496 -112.027594 134 1139ft 0kts
09-Oct-23 12:51 33.434491 -112.027588 134 1139ft 0kts
09-Oct-23 12:52 33.434489 -112.027585 134 1139ft 0kts
09-Oct-23 12:53 33.434487 -112.027583 134 1139ft 0kts
09-Oct-23 12:54 33.434209 -112.027584 183 1139ft 5kts
09-Oct-23 12:55 33.433881 -112.027465 140 1139ft 0kts
09-Oct-23 12:56 33.433879 -112.027463 140 1139ft 0kts
09-Oct-23 12:57 33.433314 -112.026901 177 1139ft 7kts
09-Oct-23 12:58 33.431760 -112.026886 180 1139ft 0kts
09-Oct-23 12:59 33.431759 -112.026886 180 1139ft 0kts
09-Oct-23 13:00 33.431759 -112.026886 180 1139ft 0kts
09-Oct-23 13:01 33.431071 -112.026816 88 1139ft 1kts
09-Oct-23 13:02 33.431089 -112.008867 99 1624ft 94kts
09-Oct-23 13:03 33.440907 -111.974336 50 2276ft 131kts
09-Oct-23 13:04 33.477640 -111.963473 9 3310ft 135kts
09-Oct-23 13:04 33.508152 -111.953644 33 4185ft 138kts
09-Oct-23 13:06 33.552354 -111.935243 9 4634ft 171kts
09-Oct-23 13:07 33.604227 -111.927361 2 4523ft 186kts
09-Oct-23 13:08 33.654874 -111.923819 6 5028ft 177kts
09-Oct-23 13:09 33.706370 -111.916183 10 5487ft 206kts
09-Oct-23 13:09 33.748849 -111.891698 56 5442ft 210kts
09-Oct-23 13:10 33.775767 -111.830923 64 5506ft 206kts
09-Oct-23 13:12 33.807752 -111.761197 58 5868ft 200kts
09-Oct-23 13:13 33.839625 -111.705766 53 6527ft 197kts
09-Oct-23 13:13 33.867107 -111.660552 56 6999ft 202kts
09-Oct-23 13:14 33.898471 -111.603086 57 7601ft 207kts
09-Oct-23 13:15 33.925428 -111.541510 66 8118ft 208kts
09-Oct-23 13:16 33.944401 -111.475054 75 8264ft 198kts
09-Oct-23 13:17 33.955403 -111.413865 76 7824ft 176kts
09-Oct-23 13:18 33.984485 -111.370674 24 7501ft 166kts
09-Oct-23 13:19 34.026743 -111.362257 356 7367ft 138kts
09-Oct-23 13:20 34.064530 -111.363737 1 7261ft 131kts
09-Oct-23 13:21 34.101883 -111.354018 6 7232ft 137kts
09-Oct-23 13:22 34.139307 -111.348276 16 7399ft 139kts
09-Oct-23 13:23 34.176063 -111.336079 359 7428ft 139kts
09-Oct-23 13:24 34.211625 -111.337175 357 7162ft 127kts
09-Oct-23 13:25 34.244260 -111.340773 352 7014ft 107kts
09-Oct-23 13:26 34.273477 -111.341538 3 7080ft 106kts
09-Oct-23 13:27 34.306547 -111.338510 8 7017ft 126kts
09-Oct-23 13:28 34.331554 -111.316638 95 6618ft 120kts
09-Oct-23 13:29 34.304125 -111.321383 204 6636ft 125kts
09-Oct-23 13:30 34.275880 -111.343670 242 6593ft 121kts
09-Oct-23 13:31 34.261756 -111.377865 215 6463ft 112kts
09-Oct-23 13:32 34.254140 -111.351955 70 5289ft 124kts
09-Oct-23 13:33 34.257543 -111.335892 72 5161ft 18kts
09-Oct-23 13:34 34.258260 -111.330557 169 5161ft 0kts
09-Oct-23 13:35 34.258258 -111.330557 169 5161ft 0kts
09-Oct-23 13:36 34.258256 -111.330557 169 5161ft 0kts
09-Oct-23 13:37 34.258254 -111.330556 169 5161ft 0kts
09-Oct-23 13:38 34.258251 -111.330556 169 5161ft 0kts
09-Oct-23 13:39 34.258248 -111.330555 169 5161ft 0kts
09-Oct-23 13:40 34.258246 -111.330554 169 5161ft 0kts

Navigation Log

Ident Type
Flight plan parsing failed, navigation log unavailable